Attica, NY

12:02 AM EDT on March 30, 2017 (GMT -0400)
A South of village Attica NY | | Change Station

Elev 1007 ft 42.84 °N, 78.29 °W | Updated 16 seconds ago

Partly Cloudy
Partly Cloudy
29.7 °F
Feels Like 30 °F
N
0.0
Wind Variable Wind from West
Gusts 0.0 mph

Today
High -- | Low -- °F
--% Chance of Precip.
Yesterday
High -- | Low -- °F
Precip. -- in
Pressure 30.27 in
Visibility 10.0 miles
Clouds Few 10000 ft
Mostly Cloudy 20000 ft
Windchill 30 °F
Dew Point 25 °F
Humidity 83%
Rainfall 0.00 in
Snow Depth Not available.
6:58 AM 7:37 PM
Waxing Crescent, 6% visible
METAR KBUF 300254Z 07008KT 10SM FEW100 BKN200 04/M03 A3025 RMK AO2 SLP250 T00441028 58005
Pressure 30.27 in
Visibility 10.0 miles
Clouds Few 10000 ft
Mostly Cloudy 20000 ft
Windchill 30 °F
Dew Point 25 °F
Humidity 83%
Rainfall 0.00 in
Snow Depth Not available.
6:58 AM 7:37 PM
Waxing Crescent, 6% visible
METAR KBUF 300254Z 07008KT 10SM FEW100 BKN200 04/M03 A3025 RMK AO2 SLP250 T00441028 58005

Get Severe Weather Alerts

Thanks for signing up!

Be on the lookout for a verification email in your inbox.

You'll start receiving the daily forecast at 8 AM.

×

10-Day Weather Forecast

Almanac

Astronomy

Mar. 30, 2017 Rise Set
Actual Time
Civil Twilight
Nautical Twilight
Astronomical Twilight
Moon
Length of Visible Light
Length of Day
Tomorrow will be .
, % of the Moon is Illuminated

Today's Extremes

State Highs State Lows

Community

WunderPhotos

Upload Photos

1,962,540 photos uploaded!

WunderBlog® & News

Nearby

Air Quality

  Air Quality AQ Index Pollutant
Not available.

Snow Depth

Station Depth Elevation

Earthquake Activity

City Distance Mag. Time & Date
Minimum magnitude displayed is 2.5.

Earthquake Activity

City Distance Mag. Time & Date
Minimum magnitude displayed is 2.5.

Coastal Water Temperatures

Place Temperature

Stations

Nearby Weather Stations

Station Location Temp. Windchill Dew Point Humidity Wind Precip. Elev Updated Type
                   

Watches & Warnings

There are currently no watches in effect.